createdAt,value
2023-06-13T00:00:25.926Z,5.07
2023-06-13T00:02:52.993Z,5.90
2023-06-13T00:05:22.674Z,5.30
2023-06-13T00:07:50.664Z,5.57
2023-06-13T00:10:17.719Z,5.23
2023-06-13T00:12:50.522Z,5.67
2023-06-13T00:15:17.932Z,5.20
2023-06-13T00:17:46.629Z,5.27
2023-06-13T00:20:13.868Z,6.13
2023-06-13T00:22:41.446Z,5.60
2023-06-13T00:25:08.486Z,5.60
2023-06-13T00:27:35.229Z,5.03
2023-06-13T00:30:02.331Z,6.00
2023-06-13T00:32:29.277Z,5.17
2023-06-13T00:34:56.177Z,6.07
2023-06-13T00:37:23.362Z,5.70
2023-06-13T00:39:50.265Z,6.37
2023-06-13T00:42:17.068Z,5.73
2023-06-13T00:44:43.834Z,5.90
2023-06-13T00:47:15.054Z,5.77
2023-06-13T00:49:42.925Z,5.53
2023-06-13T00:52:10.018Z,5.47
2023-06-13T00:54:38.897Z,5.90
2023-06-13T00:57:09.185Z,5.30
2023-06-13T00:59:36.210Z,4.93
2023-06-13T01:02:04.759Z,6.00
2023-06-13T01:04:36.949Z,5.90
2023-06-13T01:07:06.615Z,6.20
2023-06-13T01:09:34.060Z,6.63
2023-06-13T01:12:01.202Z,6.07
2023-06-13T01:14:50.424Z,6.07
2023-06-13T01:17:25.187Z,6.73
2023-06-13T01:19:59.056Z,5.40
2023-06-13T01:22:38.228Z,7.03
2023-06-13T01:25:05.492Z,7.10
2023-06-13T01:27:32.669Z,6.77
2023-06-13T01:30:01.997Z,6.60
2023-06-13T01:32:30.872Z,5.80
2023-06-13T01:34:58.145Z,6.47
2023-06-13T01:37:25.649Z,5.80
2023-06-13T01:39:52.505Z,5.97
2023-06-13T01:42:19.235Z,6.30
2023-06-13T01:44:46.321Z,5.93
2023-06-13T01:47:31.252Z,5.50
2023-06-13T01:50:04.443Z,5.77
2023-06-13T01:52:35.658Z,6.23
2023-06-13T01:55:17.783Z,6.70
2023-06-13T01:57:58.424Z,6.70
2023-06-13T02:03:14.535Z,7.07
2023-06-13T02:05:41.467Z,7.03
2023-06-13T02:08:09.097Z,6.50
2023-06-13T02:10:35.878Z,6.30
2023-06-13T02:13:02.939Z,6.30
2023-06-13T02:15:29.690Z,5.70
2023-06-13T02:17:56.668Z,6.47
2023-06-13T02:20:23.552Z,6.53
2023-06-13T02:22:50.955Z,6.77
2023-06-13T02:25:19.107Z,7.03
2023-06-13T02:27:45.885Z,6.20
2023-06-13T02:30:14.621Z,6.77
2023-06-13T02:32:42.464Z,6.47
2023-06-13T02:35:10.753Z,7.10
2023-06-13T02:37:37.581Z,6.73
2023-06-13T02:40:08.913Z,6.47
2023-06-13T02:42:36.020Z,7.00
2023-06-13T02:45:04.979Z,6.70
2023-06-13T02:47:31.762Z,6.53
2023-06-13T02:49:58.544Z,6.80
2023-06-13T02:52:25.473Z,6.00
2023-06-13T02:54:52.445Z,7.23
2023-06-13T02:57:19.154Z,6.73
2023-06-13T02:59:46.828Z,7.20
2023-06-13T03:02:13.594Z,7.40
2023-06-13T03:04:40.442Z,7.67
2023-06-13T03:07:07.415Z,6.77
2023-06-13T03:09:34.185Z,6.83
2023-06-13T03:12:01.007Z,7.30
2023-06-13T03:14:29.607Z,7.20
2023-06-13T03:16:58.712Z,6.80
2023-06-13T03:19:25.789Z,6.23
2023-06-13T03:21:52.909Z,7.17
2023-06-13T03:24:21.448Z,6.93
2023-06-13T03:26:48.532Z,7.40
2023-06-13T03:29:15.281Z,7.50
2023-06-13T03:31:42.004Z,6.20
2023-06-13T03:34:08.852Z,7.50
2023-06-13T03:36:35.692Z,7.13
2023-06-13T03:39:02.505Z,7.60
2023-06-13T03:41:29.398Z,7.07
2023-06-13T03:43:57.080Z,6.30
2023-06-13T03:46:24.074Z,7.23
2023-06-13T03:48:53.049Z,6.90
2023-06-13T03:51:19.843Z,8.50
2023-06-13T03:53:46.843Z,7.13
2023-06-13T03:56:14.411Z,7.00
2023-06-13T03:58:41.852Z,6.80
2023-06-13T04:01:09.995Z,7.20
2023-06-13T04:03:40.825Z,7.80
2023-06-13T04:06:08.254Z,6.73
2023-06-13T04:08:36.925Z,6.73
2023-06-13T04:11:03.730Z,7.27
2023-06-13T04:13:31.081Z,7.57
2023-06-13T04:15:57.951Z,7.60
2023-06-13T04:18:25.838Z,6.67
2023-06-13T04:20:54.424Z,7.47
2023-06-13T04:23:21.780Z,7.40
2023-06-13T04:25:49.052Z,7.30
2023-06-13T04:28:16.326Z,7.00
2023-06-13T04:30:43.313Z,7.07
2023-06-13T04:33:15.541Z,7.53
2023-06-13T04:35:45.529Z,6.83
2023-06-13T04:38:12.708Z,7.67
2023-06-13T04:40:40.194Z,7.50
2023-06-13T04:43:09.890Z,6.80
2023-06-13T04:45:37.695Z,7.40
2023-06-13T04:48:05.274Z,6.90
2023-06-13T04:50:32.789Z,7.57
2023-06-13T04:53:00.030Z,7.33
2023-06-13T04:55:31.076Z,7.40
2023-06-13T04:57:58.583Z,7.60
2023-06-13T05:00:26.473Z,6.67
2023-06-13T05:02:56.983Z,6.67
2023-06-13T05:05:24.998Z,6.67
2023-06-13T05:07:57.004Z,6.80
2023-06-13T05:10:25.703Z,6.87
2023-06-13T05:12:53.703Z,6.67
2023-06-13T05:15:24.532Z,7.97
2023-06-13T05:17:59.430Z,6.93
2023-06-13T05:20:27.979Z,7.17
2023-06-13T05:22:54.886Z,6.60
2023-06-13T05:25:25.546Z,6.57
2023-06-13T05:27:54.627Z,6.07
2023-06-13T05:30:22.703Z,6.97
2023-06-13T05:32:50.284Z,6.37
2023-06-13T05:35:18.031Z,6.77
2023-06-13T05:37:45.067Z,5.90
2023-06-13T05:40:12.812Z,6.50
2023-06-13T05:42:40.607Z,6.40
2023-06-13T05:45:09.871Z,6.73
2023-06-13T05:47:37.352Z,7.00
2023-06-13T05:50:04.961Z,6.40
2023-06-13T05:52:32.072Z,6.20
2023-06-13T05:55:00.705Z,6.57
2023-06-13T05:57:42.552Z,6.40
2023-06-13T06:00:16.673Z,6.10
2023-06-13T06:02:48.242Z,6.67
2023-06-13T06:05:17.008Z,6.40
2023-06-13T06:07:45.196Z,6.87
2023-06-13T06:10:14.192Z,6.87
2023-06-13T06:12:41.735Z,7.60
2023-06-13T06:15:09.150Z,6.30
2023-06-13T06:17:36.691Z,6.33
2023-06-13T06:20:07.210Z,5.97
2023-06-13T06:22:35.824Z,6.17
2023-06-13T06:25:03.453Z,6.47
2023-06-13T06:27:30.601Z,6.03
2023-06-13T06:29:57.543Z,6.23
2023-06-13T06:32:24.519Z,6.40
2023-06-13T06:34:51.677Z,6.50
2023-06-13T06:37:18.672Z,6.27
2023-06-13T06:39:45.756Z,5.17
2023-06-13T06:42:12.865Z,5.83
2023-06-13T06:44:45.515Z,7.30
2023-06-13T06:47:13.118Z,5.97
2023-06-13T06:49:40.054Z,5.97
2023-06-13T06:52:08.250Z,6.00
2023-06-13T06:54:35.382Z,4.97
2023-06-13T06:57:04.095Z,5.67
2023-06-13T06:59:35.378Z,5.33
2023-06-13T07:02:02.119Z,5.67
2023-06-13T07:04:28.940Z,6.27
2023-06-13T07:06:56.854Z,5.53
2023-06-13T07:09:25.013Z,5.80
2023-06-13T07:11:55.020Z,5.40
2023-06-13T07:14:21.782Z,6.00
2023-06-13T07:16:48.699Z,4.90
2023-06-13T07:19:15.488Z,5.60
2023-06-13T07:21:42.368Z,5.47
2023-06-13T07:24:09.877Z,5.53
2023-06-13T07:26:36.645Z,4.37
2023-06-13T07:29:04.133Z,5.13
2023-06-13T07:31:31.574Z,5.57
2023-06-13T07:33:58.993Z,5.40
2023-06-13T07:36:26.068Z,4.93
2023-06-13T07:38:52.797Z,4.80
2023-06-13T07:41:20.048Z,4.77
2023-06-13T07:43:46.789Z,5.50
2023-06-13T07:46:13.510Z,4.87
2023-06-13T07:48:40.538Z,4.70
2023-06-13T07:51:07.234Z,5.10
2023-06-13T07:53:33.931Z,4.43
2023-06-13T07:56:01.136Z,5.33
2023-06-13T07:58:28.065Z,5.20
2023-06-13T08:00:55.976Z,5.63
2023-06-13T08:03:26.014Z,5.50
2023-06-13T08:05:53.969Z,4.90
2023-06-13T08:08:22.245Z,4.40
2023-06-13T08:10:48.948Z,5.63
2023-06-13T08:13:15.891Z,5.10
2023-06-13T08:15:42.660Z,4.97
2023-06-13T08:18:09.509Z,5.47
2023-06-13T08:23:22.478Z,4.77
2023-06-13T08:25:49.378Z,4.87
2023-06-13T08:28:16.190Z,4.93
2023-06-13T08:30:44.086Z,4.80
2023-06-13T08:33:13.311Z,4.80
2023-06-13T08:35:40.156Z,5.03
2023-06-13T08:38:07.376Z,4.20
2023-06-13T08:40:34.317Z,5.03
2023-06-13T08:43:02.111Z,4.07
2023-06-13T08:45:29.295Z,4.40
2023-06-13T08:47:57.057Z,4.80
2023-06-13T08:50:25.865Z,4.47
2023-06-13T08:52:55.708Z,4.73
2023-06-13T08:55:58.456Z,4.70
2023-06-13T08:58:13.039Z,4.90
2023-06-13T09:00:41.766Z,4.20
2023-06-13T09:03:13.591Z,4.33
2023-06-13T09:05:41.647Z,4.37
2023-06-13T09:08:27.866Z,5.00
2023-06-13T09:10:59.782Z,4.50
2023-06-13T09:13:28.512Z,4.70
2023-06-13T09:15:56.437Z,4.07
2023-06-13T09:18:24.655Z,4.70
2023-06-13T09:20:51.675Z,4.60
2023-06-13T09:23:19.112Z,4.47
2023-06-13T09:25:47.555Z,4.10
2023-06-13T09:28:42.037Z,4.53
2023-06-13T09:31:10.280Z,4.53
2023-06-13T09:33:37.870Z,5.30
2023-06-13T09:36:09.135Z,4.60
2023-06-13T09:38:38.232Z,5.33
2023-06-13T09:41:06.274Z,4.70
2023-06-13T09:43:33.299Z,4.20
2023-06-13T09:46:01.379Z,4.20
2023-06-13T09:48:29.624Z,4.87
2023-06-13T09:50:57.027Z,4.20
2023-06-13T09:53:26.700Z,4.80
2023-06-13T09:55:53.928Z,4.53
2023-06-13T10:00:58.564Z,5.20
2023-06-13T10:03:27.108Z,5.20
2023-06-13T10:05:55.032Z,4.37
2023-06-13T10:08:22.139Z,4.47
2023-06-13T10:10:49.118Z,5.00
2023-06-13T10:13:20.106Z,4.03
2023-06-13T10:15:52.667Z,4.40
2023-06-13T10:18:26.222Z,4.80
2023-06-13T10:20:56.229Z,4.80
2023-06-13T10:23:27.630Z,4.77
2023-06-13T10:25:58.072Z,4.43
2023-06-13T10:28:28.425Z,4.60
2023-06-13T10:31:01.420Z,4.50
2023-06-13T10:33:36.574Z,4.50
2023-06-13T10:36:17.879Z,5.90
2023-06-13T10:39:01.279Z,5.00
2023-06-13T10:42:03.196Z,4.50
2023-06-13T10:44:43.757Z,4.90
2023-06-13T10:47:10.840Z,4.63
2023-06-13T10:49:39.729Z,4.90
2023-06-13T10:52:13.725Z,4.70
2023-06-13T10:54:41.633Z,4.87
2023-06-13T10:57:09.184Z,4.27
2023-06-13T10:59:38.360Z,4.53
2023-06-13T11:02:09.900Z,3.93
2023-06-13T11:04:41.161Z,4.73
2023-06-13T11:07:26.547Z,4.40
2023-06-13T11:10:12.664Z,4.00
2023-06-13T11:12:41.445Z,4.40
2023-06-13T11:15:28.296Z,4.60
2023-06-13T11:18:10.757Z,4.60
2023-06-13T11:20:57.023Z,3.97
2023-06-13T11:23:45.851Z,4.40
2023-06-13T11:26:13.146Z,4.03
2023-06-13T11:28:40.126Z,4.53
2023-06-13T11:31:07.466Z,4.20
2023-06-13T11:33:41.466Z,5.00
2023-06-13T11:36:08.730Z,4.80
2023-06-13T11:38:43.024Z,4.28
2023-06-13T11:41:10.700Z,4.20
2023-06-13T11:43:38.368Z,4.70
2023-06-13T11:46:06.557Z,4.57
2023-06-13T11:48:50.342Z,4.63
2023-06-13T11:51:19.750Z,4.13
2023-06-13T11:53:48.046Z,4.40
2023-06-13T11:56:16.439Z,3.95
2023-06-13T11:58:43.365Z,4.30
2023-06-13T12:01:15.005Z,4.88
2023-06-13T12:03:42.482Z,4.55
2023-06-13T12:06:09.623Z,4.78
2023-06-13T12:08:37.635Z,4.30
2023-06-13T12:11:23.834Z,4.20
2023-06-13T12:13:57.495Z,4.20
2023-06-13T12:16:27.849Z,4.30
2023-06-13T12:18:58.553Z,5.07
2023-06-13T12:21:33.466Z,4.80
2023-06-13T12:24:06.110Z,4.53
2023-06-13T12:26:35.309Z,4.07
2023-06-13T12:29:09.053Z,4.50
2023-06-13T12:31:42.685Z,4.57
2023-06-13T12:34:28.495Z,4.20
2023-06-13T12:37:07.858Z,4.30
2023-06-13T12:39:36.364Z,4.77
2023-06-13T12:42:11.540Z,3.90
2023-06-13T12:44:38.540Z,4.40
2023-06-13T12:47:07.688Z,4.07
2023-06-13T12:49:39.817Z,4.20
2023-06-13T12:52:17.032Z,4.50
2023-06-13T12:54:44.217Z,4.30
2023-06-13T12:57:13.004Z,5.00
2023-06-13T12:59:43.376Z,4.28
2023-06-13T13:02:18.531Z,4.85
2023-06-13T13:04:46.228Z,4.43
2023-06-13T13:07:14.493Z,4.00
2023-06-13T13:09:45.159Z,4.68
2023-06-13T13:12:14.987Z,4.25
2023-06-13T13:14:42.572Z,4.27
2023-06-13T13:17:09.542Z,4.30
2023-06-13T13:19:36.806Z,4.43
2023-06-13T13:22:04.133Z,4.50
2023-06-13T13:24:35.459Z,4.33
2023-06-13T13:27:03.219Z,4.37
2023-06-13T13:29:30.638Z,4.30
2023-06-13T13:31:57.819Z,4.55
2023-06-13T13:34:26.067Z,4.28
2023-06-13T13:36:54.834Z,4.40
2023-06-13T13:39:22.664Z,4.65
2023-06-13T13:41:49.705Z,3.88
2023-06-13T13:44:17.212Z,3.60
2023-06-13T13:46:44.207Z,4.57
2023-06-13T13:49:11.392Z,4.10
2023-06-13T13:51:39.165Z,3.90
2023-06-13T13:54:07.089Z,4.75
2023-06-13T13:56:34.436Z,4.32
2023-06-13T13:59:01.767Z,4.30
2023-06-13T14:01:29.205Z,5.07
2023-06-13T14:03:56.272Z,4.30
2023-06-13T14:06:23.576Z,4.47
2023-06-13T14:08:50.903Z,4.23
2023-06-13T14:11:18.832Z,4.80
2023-06-13T14:13:45.992Z,4.20
2023-06-13T14:16:13.475Z,3.92
2023-06-13T14:18:40.988Z,3.70
2023-06-13T14:21:08.016Z,3.50
2023-06-13T14:23:34.974Z,4.00
2023-06-13T14:26:02.274Z,4.00
2023-06-13T14:28:29.694Z,4.30
2023-06-13T14:30:57.327Z,4.17
2023-06-13T14:33:24.325Z,4.80
2023-06-13T14:35:51.543Z,3.90
2023-06-13T14:38:18.464Z,4.13
2023-06-13T14:40:45.466Z,4.17
2023-06-13T14:43:12.515Z,4.20
2023-06-13T14:45:39.525Z,4.23
2023-06-13T14:48:07.213Z,4.10
2023-06-13T14:50:34.397Z,3.90
2023-06-13T14:53:01.724Z,4.40
2023-06-13T14:55:29.990Z,4.17
2023-06-13T14:57:57.441Z,4.27
2023-06-13T15:00:24.549Z,4.40
2023-06-13T15:02:53.144Z,4.20
2023-06-13T15:05:20.808Z,4.00
2023-06-13T15:07:47.864Z,3.90
2023-06-13T15:10:14.847Z,4.80
2023-06-13T15:12:42.348Z,4.40
2023-06-13T15:15:09.780Z,4.03
2023-06-13T15:17:36.844Z,5.10
2023-06-13T15:20:06.048Z,4.47
2023-06-13T15:22:33.011Z,4.33
2023-06-13T15:25:00.677Z,4.33
2023-06-13T15:27:28.108Z,4.40
2023-06-13T15:29:54.989Z,4.13
2023-06-13T15:32:24.365Z,4.30
2023-06-13T15:34:51.778Z,4.50
2023-06-13T15:37:19.845Z,4.73
2023-06-13T15:39:47.248Z,4.77
2023-06-13T15:42:14.417Z,4.40
2023-06-13T15:44:44.416Z,4.67
2023-06-13T15:47:12.532Z,4.70
2023-06-13T15:49:39.621Z,4.60
2023-06-13T15:52:06.985Z,4.43
2023-06-13T15:54:37.479Z,4.27
2023-06-13T15:57:04.739Z,4.60
2023-06-13T15:59:31.729Z,4.33
2023-06-13T16:01:58.667Z,4.40
2023-06-13T16:04:25.851Z,5.00
2023-06-13T16:06:54.709Z,4.90
2023-06-13T16:09:23.583Z,4.23
2023-06-13T16:11:50.757Z,4.50
2023-06-13T16:14:18.019Z,4.90
2023-06-13T16:16:44.999Z,4.40
2023-06-13T16:19:12.029Z,4.20
2023-06-13T16:21:39.022Z,4.80
2023-06-13T16:24:07.265Z,4.90
2023-06-13T16:26:36.090Z,4.83
2023-06-13T16:29:03.230Z,4.80
2023-06-13T16:31:30.259Z,4.40
2023-06-13T16:33:57.216Z,4.63
2023-06-13T16:36:24.447Z,5.20
2023-06-13T16:38:51.534Z,5.30
2023-06-13T16:41:19.304Z,4.67
2023-06-13T16:43:46.337Z,4.80
2023-06-13T16:46:13.457Z,5.30
2023-06-13T16:48:41.550Z,5.37
2023-06-13T16:51:08.530Z,4.80
2023-06-13T16:53:35.517Z,4.67
2023-06-13T16:56:02.464Z,5.13
2023-06-13T16:58:29.495Z,5.20
2023-06-13T17:00:58.324Z,4.90
2023-06-13T17:03:26.713Z,5.30
2023-06-13T17:05:54.116Z,5.23
2023-06-13T17:08:21.468Z,6.00
2023-06-13T17:10:48.549Z,5.17
2023-06-13T17:13:15.976Z,5.30
2023-06-13T17:15:45.527Z,5.37
2023-06-13T17:18:13.204Z,4.80
2023-06-13T17:20:40.273Z,5.40
2023-06-13T17:23:07.647Z,4.97
2023-06-13T17:25:34.987Z,5.07
2023-06-13T17:28:01.980Z,5.30
2023-06-13T17:30:28.974Z,5.70
2023-06-13T17:32:56.135Z,5.80
2023-06-13T17:35:23.524Z,5.63
2023-06-13T17:37:50.870Z,5.30
2023-06-13T17:40:17.755Z,6.10
2023-06-13T17:42:45.542Z,5.33
2023-06-13T17:45:12.537Z,5.67
2023-06-13T17:47:41.342Z,6.23
2023-06-13T17:50:08.382Z,6.17
2023-06-13T17:52:36.148Z,5.87
2023-06-13T17:55:03.093Z,5.53
2023-06-13T17:57:30.415Z,5.90
2023-06-13T17:59:57.412Z,5.30
2023-06-13T18:02:24.959Z,5.83
2023-06-13T18:04:52.098Z,5.30
2023-06-13T18:07:20.040Z,5.37
2023-06-13T18:09:47.090Z,5.50
2023-06-13T18:12:21.883Z,5.93
2023-06-13T18:14:51.238Z,5.17
2023-06-13T18:17:18.325Z,5.73
2023-06-13T18:19:46.529Z,5.63
2023-06-13T18:22:14.026Z,5.43
2023-06-13T18:24:40.951Z,5.40
2023-06-13T18:27:08.469Z,5.83
2023-06-13T18:29:35.363Z,5.60
2023-06-13T18:32:03.672Z,5.60
2023-06-13T18:34:31.043Z,5.50
2023-06-13T18:36:58.022Z,5.47
2023-06-13T18:39:24.968Z,6.47
2023-06-13T18:41:51.949Z,5.50
2023-06-13T18:44:18.956Z,6.40
2023-06-13T18:46:45.934Z,5.93
2023-06-13T18:49:14.670Z,4.97
2023-06-13T18:51:41.616Z,6.37
2023-06-13T18:54:08.957Z,5.50
2023-06-13T18:56:36.129Z,5.30
2023-06-13T18:59:03.003Z,5.73
2023-06-13T19:01:36.216Z,5.60
2023-06-13T19:04:03.981Z,6.17
2023-06-13T19:06:33.209Z,5.50
2023-06-13T19:09:00.202Z,5.57
2023-06-13T19:11:28.435Z,6.60
2023-06-13T19:13:55.394Z,5.60
2023-06-13T19:16:22.785Z,6.13
2023-06-13T19:18:50.436Z,5.30
2023-06-13T19:21:18.530Z,5.43
2023-06-13T19:23:45.550Z,6.50
2023-06-13T19:26:13.905Z,6.00
2023-06-13T19:28:42.807Z,6.00
2023-06-13T19:31:09.670Z,5.60
2023-06-13T19:33:36.634Z,6.23
2023-06-13T19:36:03.580Z,5.90
2023-06-13T19:38:36.011Z,6.03
2023-06-13T19:41:03.223Z,6.20
2023-06-13T19:43:31.378Z,6.10
2023-06-13T19:45:59.285Z,6.30
2023-06-13T19:48:26.066Z,6.50
2023-06-13T19:50:57.509Z,6.60
2023-06-13T19:53:31.199Z,6.57
2023-06-13T19:56:01.955Z,6.00
2023-06-13T19:58:31.232Z,7.40
2023-06-13T20:00:59.318Z,6.47
2023-06-13T20:03:29.610Z,6.90
2023-06-13T20:05:57.538Z,6.83
2023-06-13T20:08:24.336Z,6.47
2023-06-13T20:10:52.276Z,6.63
2023-06-13T20:13:19.495Z,6.30
2023-06-13T20:15:46.400Z,6.07
2023-06-13T20:18:14.121Z,5.90
2023-06-13T20:20:40.989Z,7.00
2023-06-13T20:23:08.542Z,5.93
2023-06-13T20:25:35.201Z,7.60
2023-06-13T20:28:01.914Z,7.50
2023-06-13T20:30:28.995Z,6.30
2023-06-13T20:32:56.568Z,6.90
2023-06-13T20:35:23.699Z,6.90
2023-06-13T20:37:50.812Z,6.80
2023-06-13T20:40:17.654Z,6.30
2023-06-13T20:42:46.626Z,7.00
2023-06-13T20:45:15.308Z,7.20
2023-06-13T20:47:48.194Z,6.30
2023-06-13T20:50:15.704Z,6.43
2023-06-13T20:52:42.585Z,7.10
2023-06-13T20:55:10.091Z,6.87
2023-06-13T20:57:38.310Z,6.43
2023-06-13T21:00:35.871Z,6.53
2023-06-13T21:03:03.566Z,6.67
2023-06-13T21:05:30.579Z,6.80
2023-06-13T21:08:00.932Z,6.63
2023-06-13T21:10:31.846Z,7.07
2023-06-13T21:12:58.754Z,7.50
2023-06-13T21:15:26.341Z,7.03
2023-06-13T21:17:54.641Z,6.80
2023-06-13T21:20:24.241Z,6.47
2023-06-13T21:22:51.095Z,7.47
2023-06-13T21:25:19.949Z,6.60
2023-06-13T21:27:47.627Z,7.10
2023-06-13T21:30:15.810Z,6.77
2023-06-13T21:32:46.224Z,7.10
2023-06-13T21:35:13.634Z,7.30
2023-06-13T21:37:40.617Z,7.20
2023-06-13T21:40:13.313Z,7.10
2023-06-13T21:42:41.184Z,6.90
2023-06-13T21:45:08.735Z,7.10
2023-06-13T21:47:35.858Z,7.00
2023-06-13T21:50:05.802Z,7.80
2023-06-13T21:52:32.680Z,7.37
2023-06-13T21:54:59.896Z,7.20
2023-06-13T21:57:26.661Z,7.57
2023-06-13T21:59:53.582Z,7.20
2023-06-13T22:02:20.406Z,7.47
2023-06-13T22:04:47.155Z,6.90
2023-06-13T22:07:15.718Z,6.80
2023-06-13T22:09:42.817Z,7.40
2023-06-13T22:12:10.588Z,7.90
2023-06-13T22:14:37.399Z,6.73
2023-06-13T22:17:05.213Z,7.00
2023-06-13T22:19:33.172Z,7.00
2023-06-13T22:22:00.228Z,7.00
2023-06-13T22:24:27.832Z,7.23
2023-06-13T22:26:55.244Z,6.70
2023-06-13T22:29:22.855Z,7.20
2023-06-13T22:31:50.139Z,6.93
2023-06-13T22:34:17.124Z,6.87
2023-06-13T22:36:44.228Z,6.77
2023-06-13T22:39:12.128Z,6.10
2023-06-13T22:41:38.873Z,6.60
2023-06-13T22:44:05.756Z,7.20
2023-06-13T22:46:32.514Z,6.70
2023-06-13T22:49:01.011Z,7.13
2023-06-13T22:51:28.026Z,6.90
2023-06-13T22:53:55.938Z,6.87
2023-06-13T22:56:22.654Z,6.60
2023-06-13T22:58:49.525Z,6.83
2023-06-13T23:01:16.333Z,7.03
2023-06-13T23:03:43.281Z,7.20
2023-06-13T23:06:10.337Z,7.17
2023-06-13T23:08:37.407Z,6.50
2023-06-13T23:11:04.263Z,7.20
2023-06-13T23:13:31.266Z,7.30
2023-06-13T23:15:59.661Z,6.13
2023-06-13T23:18:26.606Z,6.50
2023-06-13T23:20:53.965Z,6.33
2023-06-13T23:23:21.630Z,6.70
2023-06-13T23:25:50.155Z,6.00
2023-06-13T23:28:17.786Z,6.90
2023-06-13T23:30:45.373Z,6.20
2023-06-13T23:33:13.055Z,6.33
2023-06-13T23:35:39.997Z,7.00
2023-06-13T23:38:07.826Z,6.70
2023-06-13T23:40:34.739Z,6.93
2023-06-13T23:43:07.348Z,6.50
2023-06-13T23:45:34.111Z,5.83
2023-06-13T23:48:01.419Z,5.90
2023-06-13T23:50:28.200Z,6.10
2023-06-13T23:52:55.062Z,5.67
2023-06-13T23:55:22.922Z,6.70
2023-06-13T23:57:49.710Z,6.13
